sensor_id;sensor_type;location;lat;lon;timestamp;temperature;humidity
65396;HTU21D;52004;45.136;39.010;2022-07-22T00:00:05;18.51;59.42
65396;HTU21D;52004;45.136;39.010;2022-07-22T00:02:32;18.50;59.44
65396;HTU21D;52004;45.136;39.010;2022-07-22T00:04:58;18.48;59.46
65396;HTU21D;52004;45.136;39.010;2022-07-22T00:07:24;18.46;59.53
65396;HTU21D;52004;45.136;39.010;2022-07-22T00:09:50;18.42;59.57
65396;HTU21D;52004;45.136;39.010;2022-07-22T00:12:15;18.41;59.59
65396;HTU21D;52004;45.136;39.010;2022-07-22T00:14:42;18.39;59.64
65396;HTU21D;52004;45.136;39.010;2022-07-22T00:17:08;18.37;59.72
65396;HTU21D;52004;45.136;39.010;2022-07-22T00:19:34;18.34;59.74
65396;HTU21D;52004;45.136;39.010;2022-07-22T00:22:00;18.33;59.77
65396;HTU21D;52004;45.136;39.010;2022-07-22T00:24:26;18.33;59.77
65396;HTU21D;52004;45.136;39.010;2022-07-22T00:26:53;18.30;59.80
65396;HTU21D;52004;45.136;39.010;2022-07-22T00:29:19;18.28;59.80
65396;HTU21D;52004;45.136;39.010;2022-07-22T00:31:45;18.26;59.86
65396;HTU21D;52004;45.136;39.010;2022-07-22T00:34:10;18.26;59.86
65396;HTU21D;52004;45.136;39.010;2022-07-22T00:36:36;18.26;59.86
65396;HTU21D;52004;45.136;39.010;2022-07-22T00:39:03;18.25;59.88
65396;HTU21D;52004;45.136;39.010;2022-07-22T00:41:29;18.24;59.85
65396;HTU21D;52004;45.136;39.010;2022-07-22T00:43:58;18.22;59.88
65396;HTU21D;52004;45.136;39.010;2022-07-22T00:46:24;18.20;59.91
65396;HTU21D;52004;45.136;39.010;2022-07-22T00:48:51;18.17;59.95
65396;HTU21D;52004;45.136;39.010;2022-07-22T00:51:18;18.14;60.00
65396;HTU21D;52004;45.136;39.010;2022-07-22T00:53:45;18.12;60.05
65396;HTU21D;52004;45.136;39.010;2022-07-22T00:56:12;18.10;60.09
65396;HTU21D;52004;45.136;39.010;2022-07-22T00:58:38;18.09;60.12
65396;HTU21D;52004;45.136;39.010;2022-07-22T01:01:04;18.07;60.13
65396;HTU21D;52004;45.136;39.010;2022-07-22T01:03:30;18.07;60.15
65396;HTU21D;52004;45.136;39.010;2022-07-22T01:05:56;18.05;60.18
65396;HTU21D;52004;45.136;39.010;2022-07-22T01:08:22;18.03;60.22
65396;HTU21D;52004;45.136;39.010;2022-07-22T01:10:49;18.03;60.23
65396;HTU21D;52004;45.136;39.010;2022-07-22T01:13:15;18.02;60.29
65396;HTU21D;52004;45.136;39.010;2022-07-22T01:15:41;17.99;60.31
65396;HTU21D;52004;45.136;39.010;2022-07-22T01:18:07;17.98;60.35
65396;HTU21D;52004;45.136;39.010;2022-07-22T01:20:34;17.97;60.35
65396;HTU21D;52004;45.136;39.010;2022-07-22T01:23:00;17.96;60.38
65396;HTU21D;52004;45.136;39.010;2022-07-22T01:25:26;17.95;60.43
65396;HTU21D;52004;45.136;39.010;2022-07-22T01:27:52;17.94;60.49
65396;HTU21D;52004;45.136;39.010;2022-07-22T01:30:18;17.93;60.52
65396;HTU21D;52004;45.136;39.010;2022-07-22T01:32:45;17.91;60.54
65396;HTU21D;52004;45.136;39.010;2022-07-22T01:35:11;17.89;60.55
65396;HTU21D;52004;45.136;39.010;2022-07-22T01:37:37;17.87;60.56
65396;HTU21D;52004;45.136;39.010;2022-07-22T01:40:04;17.85;60.60
65396;HTU21D;52004;45.136;39.010;2022-07-22T01:42:30;17.84;60.63
65396;HTU21D;52004;45.136;39.010;2022-07-22T01:44:56;17.82;60.66
65396;HTU21D;52004;45.136;39.010;2022-07-22T01:47:22;17.81;60.63
65396;HTU21D;52004;45.136;39.010;2022-07-22T01:49:48;17.80;60.68
65396;HTU21D;52004;45.136;39.010;2022-07-22T01:52:14;17.80;60.70
65396;HTU21D;52004;45.136;39.010;2022-07-22T01:54:42;17.78;60.71
65396;HTU21D;52004;45.136;39.010;2022-07-22T01:57:09;17.78;60.73
65396;HTU21D;52004;45.136;39.010;2022-07-22T01:59:42;17.76;60.74
65396;HTU21D;52004;45.136;39.010;2022-07-22T02:02:08;17.74;60.80
65396;HTU21D;52004;45.136;39.010;2022-07-22T02:04:34;17.73;60.83
65396;HTU21D;52004;45.136;39.010;2022-07-22T02:07:00;17.72;60.85
65396;HTU21D;52004;45.136;39.010;2022-07-22T02:09:26;17.70;60.89
65396;HTU21D;52004;45.136;39.010;2022-07-22T02:11:56;17.69;60.90
65396;HTU21D;52004;45.136;39.010;2022-07-22T02:14:23;17.69;60.96
65396;HTU21D;52004;45.136;39.010;2022-07-22T02:16:50;17.69;60.96
65396;HTU21D;52004;45.136;39.010;2022-07-22T02:19:16;17.70;61.00
65396;HTU21D;52004;45.136;39.010;2022-07-22T02:21:42;17.72;61.04
65396;HTU21D;52004;45.136;39.010;2022-07-22T02:24:07;17.72;61.08
65396;HTU21D;52004;45.136;39.010;2022-07-22T02:26:34;17.72;61.08
65396;HTU21D;52004;45.136;39.010;2022-07-22T02:29:00;17.70;61.16
65396;HTU21D;52004;45.136;39.010;2022-07-22T02:31:26;17.70;61.23
65396;HTU21D;52004;45.136;39.010;2022-07-22T02:33:52;17.70;61.25
65396;HTU21D;52004;45.136;39.010;2022-07-22T02:36:18;17.72;61.31
65396;HTU21D;52004;45.136;39.010;2022-07-22T02:38:44;17.73;61.33
65396;HTU21D;52004;45.136;39.010;2022-07-22T02:41:10;17.76;61.33
65396;HTU21D;52004;45.136;39.010;2022-07-22T02:43:41;17.77;61.36
65396;HTU21D;52004;45.136;39.010;2022-07-22T02:46:08;17.79;61.36
65396;HTU21D;52004;45.136;39.010;2022-07-22T02:48:34;17.83;61.40
65396;HTU21D;52004;45.136;39.010;2022-07-22T02:51:01;17.85;61.42
65396;HTU21D;52004;45.136;39.010;2022-07-22T02:53:28;17.90;61.41
65396;HTU21D;52004;45.136;39.010;2022-07-22T02:55:55;17.93;61.44
65396;HTU21D;52004;45.136;39.010;2022-07-22T02:58:21;17.96;61.48
65396;HTU21D;52004;45.136;39.010;2022-07-22T03:00:47;17.99;61.50
65396;HTU21D;52004;45.136;39.010;2022-07-22T03:03:13;18.03;61.60
65396;HTU21D;52004;45.136;39.010;2022-07-22T03:05:40;18.06;61.64
65396;HTU21D;52004;45.136;39.010;2022-07-22T03:08:26;18.12;61.60
65396;HTU21D;52004;45.136;39.010;2022-07-22T03:11:17;18.18;61.64
65396;HTU21D;52004;45.136;39.010;2022-07-22T03:13:43;18.24;61.65
65396;HTU21D;52004;45.136;39.010;2022-07-22T03:16:09;18.29;61.65
65396;HTU21D;52004;45.136;39.010;2022-07-22T03:18:36;18.36;61.71
65396;HTU21D;52004;45.136;39.010;2022-07-22T03:21:02;18.43;61.62
65396;HTU21D;52004;45.136;39.010;2022-07-22T03:23:28;18.48;61.70
65396;HTU21D;52004;45.136;39.010;2022-07-22T03:25:57;18.54;61.70
65396;HTU21D;52004;45.136;39.010;2022-07-22T03:28:23;18.61;61.67
65396;HTU21D;52004;45.136;39.010;2022-07-22T03:30:51;18.66;61.60
65396;HTU21D;52004;45.136;39.010;2022-07-22T03:33:17;18.73;61.61
65396;HTU21D;52004;45.136;39.010;2022-07-22T03:35:44;18.81;61.61
65396;HTU21D;52004;45.136;39.010;2022-07-22T03:38:10;18.88;61.60
65396;HTU21D;52004;45.136;39.010;2022-07-22T03:40:37;18.97;61.55
65396;HTU21D;52004;45.136;39.010;2022-07-22T03:43:04;19.05;61.53
65396;HTU21D;52004;45.136;39.010;2022-07-22T03:45:30;19.11;61.54
65396;HTU21D;52004;45.136;39.010;2022-07-22T03:47:57;19.18;61.51
65396;HTU21D;52004;45.136;39.010;2022-07-22T03:50:30;19.25;61.47
65396;HTU21D;52004;45.136;39.010;2022-07-22T03:52:56;19.35;61.48
65396;HTU21D;52004;45.136;39.010;2022-07-22T03:55:22;19.44;61.43
65396;HTU21D;52004;45.136;39.010;2022-07-22T03:57:51;19.51;61.37
65396;HTU21D;52004;45.136;39.010;2022-07-22T04:00:26;19.55;61.39
65396;HTU21D;52004;45.136;39.010;2022-07-22T04:02:52;19.61;61.31
65396;HTU21D;52004;45.136;39.010;2022-07-22T04:05:44;19.68;61.34
65396;HTU21D;52004;45.136;39.010;2022-07-22T04:08:11;19.76;61.28
65396;HTU21D;52004;45.136;39.010;2022-07-22T04:10:37;19.84;61.20
65396;HTU21D;52004;45.136;39.010;2022-07-22T04:13:03;19.92;61.15
65396;HTU21D;52004;45.136;39.010;2022-07-22T04:15:41;20.02;61.06
65396;HTU21D;52004;45.136;39.010;2022-07-22T04:18:07;20.10;61.05
65396;HTU21D;52004;45.136;39.010;2022-07-22T04:20:33;20.17;61.01
65396;HTU21D;52004;45.136;39.010;2022-07-22T04:23:18;20.26;60.99
65396;HTU21D;52004;45.136;39.010;2022-07-22T04:25:44;20.33;60.93
65396;HTU21D;52004;45.136;39.010;2022-07-22T04:28:11;20.41;60.89
65396;HTU21D;52004;45.136;39.010;2022-07-22T04:30:39;20.47;60.85
65396;HTU21D;52004;45.136;39.010;2022-07-22T04:33:05;20.55;60.83
65396;HTU21D;52004;45.136;39.010;2022-07-22T04:35:32;20.64;60.79
65396;HTU21D;52004;45.136;39.010;2022-07-22T04:38:07;20.73;60.75
65396;HTU21D;52004;45.136;39.010;2022-07-22T04:40:35;20.80;60.71
65396;HTU21D;52004;45.136;39.010;2022-07-22T04:43:02;0.00;60.69
65396;HTU21D;52004;45.136;39.010;2022-07-22T04:45:28;20.96;60.64
65396;HTU21D;52004;45.136;39.010;2022-07-22T04:47:54;21.04;60.63
65396;HTU21D;52004;45.136;39.010;2022-07-22T04:50:20;0.00;60.65
65396;HTU21D;52004;45.136;39.010;2022-07-22T04:52:52;0.00;60.61
65396;HTU21D;52004;45.136;39.010;2022-07-22T04:55:18;21.35;60.60
65396;HTU21D;52004;45.136;39.010;2022-07-22T04:57:44;0.00;60.54
65396;HTU21D;52004;45.136;39.010;2022-07-22T05:00:10;21.54;60.52
65396;HTU21D;52004;45.136;39.010;2022-07-22T05:02:46;0.00;60.54
65396;HTU21D;52004;45.136;39.010;2022-07-22T05:05:12;21.75;60.49
65396;HTU21D;52004;45.136;39.010;2022-07-22T05:07:38;21.87;60.50
65396;HTU21D;52004;45.136;39.010;2022-07-22T05:10:04;21.98;60.44
65396;HTU21D;52004;45.136;39.010;2022-07-22T05:12:30;22.08;60.32
65396;HTU21D;52004;45.136;39.010;2022-07-22T05:14:56;22.13;60.24
65396;HTU21D;52004;45.136;39.010;2022-07-22T05:17:22;22.20;60.19
65396;HTU21D;52004;45.136;39.010;2022-07-22T05:20:04;22.26;60.16
65396;HTU21D;52004;45.136;39.010;2022-07-22T05:22:34;22.31;60.22
65396;HTU21D;52004;45.136;39.010;2022-07-22T05:25:04;22.40;60.15
65396;HTU21D;52004;45.136;39.010;2022-07-22T05:27:30;22.50;60.18
65396;HTU21D;52004;45.136;39.010;2022-07-22T05:29:56;22.57;60.09
65396;HTU21D;52004;45.136;39.010;2022-07-22T05:32:22;22.65;60.09
65396;HTU21D;52004;45.136;39.010;2022-07-22T05:34:53;22.71;60.01
65396;HTU21D;52004;45.136;39.010;2022-07-22T05:37:19;22.80;60.02
65396;HTU21D;52004;45.136;39.010;2022-07-22T05:39:45;22.90;59.87
65396;HTU21D;52004;45.136;39.010;2022-07-22T05:42:11;22.94;59.81
65396;HTU21D;52004;45.136;39.010;2022-07-22T05:44:37;22.99;59.83
65396;HTU21D;52004;45.136;39.010;2022-07-22T05:47:03;23.08;59.74
65396;HTU21D;52004;45.136;39.010;2022-07-22T05:49:29;23.14;59.73
65396;HTU21D;52004;45.136;39.010;2022-07-22T05:52:01;23.22;59.77
65396;HTU21D;52004;45.136;39.010;2022-07-22T05:54:28;23.31;59.78
65396;HTU21D;52004;45.136;39.010;2022-07-22T05:56:54;23.41;59.68
65396;HTU21D;52004;45.136;39.010;2022-07-22T05:59:20;23.47;59.55
65396;HTU21D;52004;45.136;39.010;2022-07-22T06:01:46;23.51;59.48
65396;HTU21D;52004;45.136;39.010;2022-07-22T06:04:35;23.57;59.48
65396;HTU21D;52004;45.136;39.010;2022-07-22T06:07:02;23.66;59.56
65396;HTU21D;52004;45.136;39.010;2022-07-22T06:09:29;23.75;59.46
65396;HTU21D;52004;45.136;39.010;2022-07-22T06:11:55;23.84;59.43
65396;HTU21D;52004;45.136;39.010;2022-07-22T06:14:21;23.92;59.47
65396;HTU21D;52004;45.136;39.010;2022-07-22T06:16:47;24.02;59.43
65396;HTU21D;52004;45.136;39.010;2022-07-22T06:19:13;24.10;59.27
65396;HTU21D;52004;45.136;39.010;2022-07-22T06:21:39;24.17;59.23
65396;HTU21D;52004;45.136;39.010;2022-07-22T06:24:06;24.23;59.10
65396;HTU21D;52004;45.136;39.010;2022-07-22T06:26:33;24.28;59.04
65396;HTU21D;52004;45.136;39.010;2022-07-22T06:28:59;24.33;59.05
65396;HTU21D;52004;45.136;39.010;2022-07-22T06:31:25;24.40;58.92
65396;HTU21D;52004;45.136;39.010;2022-07-22T06:33:51;24.46;58.84
65396;HTU21D;52004;45.136;39.010;2022-07-22T06:36:17;24.51;58.74
65396;HTU21D;52004;45.136;39.010;2022-07-22T06:38:43;24.59;58.70
65396;HTU21D;52004;45.136;39.010;2022-07-22T06:41:28;24.65;58.51
65396;HTU21D;52004;45.136;39.010;2022-07-22T06:44:03;24.72;58.55
65396;HTU21D;52004;45.136;39.010;2022-07-22T06:46:46;24.78;58.50
65396;HTU21D;52004;45.136;39.010;2022-07-22T06:49:12;24.86;58.38
65396;HTU21D;52004;45.136;39.010;2022-07-22T06:51:38;24.91;58.39
65396;HTU21D;52004;45.136;39.010;2022-07-22T06:54:04;24.99;58.32
65396;HTU21D;52004;45.136;39.010;2022-07-22T06:56:30;25.04;58.19
65396;HTU21D;52004;45.136;39.010;2022-07-22T06:58:57;25.09;58.07
65396;HTU21D;52004;45.136;39.010;2022-07-22T07:01:23;25.16;58.00
65396;HTU21D;52004;45.136;39.010;2022-07-22T07:03:52;25.18;57.87
65396;HTU21D;52004;45.136;39.010;2022-07-22T07:06:19;25.23;57.81
65396;HTU21D;52004;45.136;39.010;2022-07-22T07:09:03;25.32;57.84
65396;HTU21D;52004;45.136;39.010;2022-07-22T07:11:30;25.42;57.70
65396;HTU21D;52004;45.136;39.010;2022-07-22T07:13:57;25.51;57.68
65396;HTU21D;52004;45.136;39.010;2022-07-22T07:16:23;25.60;57.45
65396;HTU21D;52004;45.136;39.010;2022-07-22T07:18:49;25.65;57.29
65396;HTU21D;52004;45.136;39.010;2022-07-22T07:21:15;25.68;57.18
65396;HTU21D;52004;45.136;39.010;2022-07-22T07:23:41;25.75;57.17
65396;HTU21D;52004;45.136;39.010;2022-07-22T07:26:07;25.81;56.98
65396;HTU21D;52004;45.136;39.010;2022-07-22T07:28:34;25.89;56.97
65396;HTU21D;52004;45.136;39.010;2022-07-22T07:31:15;25.99;56.99
65396;HTU21D;52004;45.136;39.010;2022-07-22T07:33:41;26.09;56.96
65396;HTU21D;52004;45.136;39.010;2022-07-22T07:36:08;26.12;56.58
65396;HTU21D;52004;45.136;39.010;2022-07-22T07:38:39;26.15;56.61
65396;HTU21D;52004;45.136;39.010;2022-07-22T07:41:10;26.20;56.58
65396;HTU21D;52004;45.136;39.010;2022-07-22T07:43:38;0.00;56.66
65396;HTU21D;52004;45.136;39.010;2022-07-22T07:46:04;26.41;56.58
65396;HTU21D;52004;45.136;39.010;2022-07-22T07:48:30;26.52;56.29
65396;HTU21D;52004;45.136;39.010;2022-07-22T07:50:56;26.56;56.00
65396;HTU21D;52004;45.136;39.010;2022-07-22T07:53:22;26.56;55.97
65396;HTU21D;52004;45.136;39.010;2022-07-22T07:55:49;26.62;56.11
65396;HTU21D;52004;45.136;39.010;2022-07-22T07:58:16;26.71;56.06
65396;HTU21D;52004;45.136;39.010;2022-07-22T08:00:43;26.71;55.94
65396;HTU21D;52004;45.136;39.010;2022-07-22T08:03:09;26.63;55.74
65396;HTU21D;52004;45.136;39.010;2022-07-22T08:05:37;26.49;55.75
65396;HTU21D;52004;45.136;39.010;2022-07-22T08:08:09;26.33;55.82
65396;HTU21D;52004;45.136;39.010;2022-07-22T08:10:35;26.31;56.11
65396;HTU21D;52004;45.136;39.010;2022-07-22T08:13:19;26.39;56.18
65396;HTU21D;52004;45.136;39.010;2022-07-22T08:16:08;26.54;56.25
65396;HTU21D;52004;45.136;39.010;2022-07-22T08:18:34;26.73;56.27
65396;HTU21D;52004;45.136;39.010;2022-07-22T08:21:00;26.93;56.06
65396;HTU21D;52004;45.136;39.010;2022-07-22T08:24:01;27.01;55.68
65396;HTU21D;52004;45.136;39.010;2022-07-22T08:26:27;26.96;55.58
65396;HTU21D;52004;45.136;39.010;2022-07-22T08:28:53;26.84;55.50
65396;HTU21D;52004;45.136;39.010;2022-07-22T08:31:19;26.72;55.48
65396;HTU21D;52004;45.136;39.010;2022-07-22T08:33:47;26.62;55.56
65396;HTU21D;52004;45.136;39.010;2022-07-22T08:36:13;26.61;55.61
65396;HTU21D;52004;45.136;39.010;2022-07-22T08:38:39;26.58;55.56
65396;HTU21D;52004;45.136;39.010;2022-07-22T08:41:05;26.60;55.50
65396;HTU21D;52004;45.136;39.010;2022-07-22T08:43:34;26.68;55.37
65396;HTU21D;52004;45.136;39.010;2022-07-22T08:46:01;26.73;55.31
65396;HTU21D;52004;45.136;39.010;2022-07-22T08:48:30;26.78;55.23
65396;HTU21D;52004;45.136;39.010;2022-07-22T08:51:05;26.82;55.08
65396;HTU21D;52004;45.136;39.010;2022-07-22T08:53:56;26.82;55.10
65396;HTU21D;52004;45.136;39.010;2022-07-22T08:56:23;26.80;55.06
65396;HTU21D;52004;45.136;39.010;2022-07-22T08:58:49;26.78;55.20
65396;HTU21D;52004;45.136;39.010;2022-07-22T09:01:16;26.79;55.20
65396;HTU21D;52004;45.136;39.010;2022-07-22T09:03:48;26.81;55.05
65396;HTU21D;52004;45.136;39.010;2022-07-22T09:06:16;26.78;54.93
65396;HTU21D;52004;45.136;39.010;2022-07-22T09:08:50;26.72;54.84
65396;HTU21D;52004;45.136;39.010;2022-07-22T09:11:36;26.66;54.91
65396;HTU21D;52004;45.136;39.010;2022-07-22T09:14:21;26.68;54.90
65396;HTU21D;52004;45.136;39.010;2022-07-22T09:17:07;26.64;54.83
65396;HTU21D;52004;45.136;39.010;2022-07-22T09:20:17;26.65;54.88
65396;HTU21D;52004;45.136;39.010;2022-07-22T09:23:04;26.68;54.94
65396;HTU21D;52004;45.136;39.010;2022-07-22T09:25:35;26.83;54.82
65396;HTU21D;52004;45.136;39.010;2022-07-22T09:28:20;27.04;54.87
65396;HTU21D;52004;45.136;39.010;2022-07-22T09:31:04;27.30;54.81
65396;HTU21D;52004;45.136;39.010;2022-07-22T09:33:36;27.56;54.76
65396;HTU21D;52004;45.136;39.010;2022-07-22T09:36:29;0.00;54.49
65396;HTU21D;52004;45.136;39.010;2022-07-22T09:38:56;27.98;54.36
65396;HTU21D;52004;45.136;39.010;2022-07-22T09:41:23;28.14;54.22
65396;HTU21D;52004;45.136;39.010;2022-07-22T09:43:49;28.27;54.10
65396;HTU21D;52004;45.136;39.010;2022-07-22T09:46:32;28.40;53.88
65396;HTU21D;52004;45.136;39.010;2022-07-22T09:49:34;28.47;53.58
65396;HTU21D;52004;45.136;39.010;2022-07-22T09:52:19;28.49;53.66
65396;HTU21D;52004;45.136;39.010;2022-07-22T09:55:00;28.60;53.64
65396;HTU21D;52004;45.136;39.010;2022-07-22T09:57:26;28.70;53.30
65396;HTU21D;52004;45.136;39.010;2022-07-22T09:59:52;28.67;53.07
65396;HTU21D;52004;45.136;39.010;2022-07-22T10:02:49;28.54;52.98
65396;HTU21D;52004;45.136;39.010;2022-07-22T10:05:17;28.39;53.09
65396;HTU21D;52004;45.136;39.010;2022-07-22T10:07:44;28.32;53.37
65396;HTU21D;52004;45.136;39.010;2022-07-22T10:10:12;28.39;53.43
65396;HTU21D;52004;45.136;39.010;2022-07-22T10:12:38;28.50;53.28
65396;HTU21D;52004;45.136;39.010;2022-07-22T10:15:06;28.55;53.01
65396;HTU21D;52004;45.136;39.010;2022-07-22T10:17:37;28.49;52.85
65396;HTU21D;52004;45.136;39.010;2022-07-22T10:20:04;28.40;52.91
65396;HTU21D;52004;45.136;39.010;2022-07-22T10:25:12;28.40;53.09
65396;HTU21D;52004;45.136;39.010;2022-07-22T10:27:55;28.44;53.12
65396;HTU21D;52004;45.136;39.010;2022-07-22T10:30:24;28.47;53.01
65396;HTU21D;52004;45.136;39.010;2022-07-22T10:33:03;28.48;53.06
65396;HTU21D;52004;45.136;39.010;2022-07-22T10:35:30;28.40;52.91
65396;HTU21D;52004;45.136;39.010;2022-07-22T10:38:02;28.38;52.96
65396;HTU21D;52004;45.136;39.010;2022-07-22T10:40:29;28.34;52.99
65396;HTU21D;52004;45.136;39.010;2022-07-22T10:43:02;28.27;52.90
65396;HTU21D;52004;45.136;39.010;2022-07-22T10:48:01;27.74;52.55
65396;HTU21D;52004;45.136;39.010;2022-07-22T10:53:16;26.99;53.20
65396;HTU21D;52004;45.136;39.010;2022-07-22T10:55:58;26.23;53.82
65396;HTU21D;52004;45.136;39.010;2022-07-22T11:01:00;0.00;56.32
65396;HTU21D;52004;45.136;39.010;2022-07-22T11:03:29;23.31;57.29
65396;HTU21D;52004;45.136;39.010;2022-07-22T11:05:56;23.05;57.71
65396;HTU21D;52004;45.136;39.010;2022-07-22T11:08:22;22.95;57.97
65396;HTU21D;52004;45.136;39.010;2022-07-22T11:10:49;22.88;57.93
65396;HTU21D;52004;45.136;39.010;2022-07-22T11:13:33;22.79;58.23
65396;HTU21D;52004;45.136;39.010;2022-07-22T11:16:19;22.70;58.13
65396;HTU21D;52004;45.136;39.010;2022-07-22T11:21:19;22.39;58.50
65396;HTU21D;52004;45.136;39.010;2022-07-22T11:23:46;22.27;58.70
65396;HTU21D;52004;45.136;39.010;2022-07-22T11:26:14;22.12;58.96
65396;HTU21D;52004;45.136;39.010;2022-07-22T11:28:40;21.96;59.67
65396;HTU21D;52004;45.136;39.010;2022-07-22T11:31:07;21.78;59.72
65396;HTU21D;52004;45.136;39.010;2022-07-22T11:33:33;21.75;59.67
65396;HTU21D;52004;45.136;39.010;2022-07-22T11:36:03;21.73;59.80
65396;HTU21D;52004;45.136;39.010;2022-07-22T11:38:39;21.74;59.94
65396;HTU21D;52004;45.136;39.010;2022-07-22T11:41:05;21.81;59.89
65396;HTU21D;52004;45.136;39.010;2022-07-22T11:43:38;21.94;59.80
65396;HTU21D;52004;45.136;39.010;2022-07-22T11:46:04;22.09;59.64
65396;HTU21D;52004;45.136;39.010;2022-07-22T11:48:30;22.24;59.60
65396;HTU21D;52004;45.136;39.010;2022-07-22T11:51:03;22.43;59.63
65396;HTU21D;52004;45.136;39.010;2022-07-22T11:53:29;22.69;59.53
65396;HTU21D;52004;45.136;39.010;2022-07-22T11:55:59;22.93;59.42
65396;HTU21D;52004;45.136;39.010;2022-07-22T12:01:07;23.15;59.06
65396;HTU21D;52004;45.136;39.010;2022-07-22T12:03:34;0.00;58.99
65396;HTU21D;52004;45.136;39.010;2022-07-22T12:06:01;0.00;58.99
65396;HTU21D;52004;45.136;39.010;2022-07-22T12:08:28;22.81;59.32
65396;HTU21D;52004;45.136;39.010;2022-07-22T12:10:55;22.22;59.56
65396;HTU21D;52004;45.136;39.010;2022-07-22T12:13:21;0.00;60.12
65396;HTU21D;52004;45.136;39.010;2022-07-22T12:15:47;21.43;60.54
65396;HTU21D;52004;45.136;39.010;2022-07-22T12:18:16;21.19;60.80
65396;HTU21D;52004;45.136;39.010;2022-07-22T12:20:44;0.00;61.14
65396;HTU21D;52004;45.136;39.010;2022-07-22T12:23:10;0.00;61.29
65396;HTU21D;52004;45.136;39.010;2022-07-22T12:25:57;20.61;61.51
65396;HTU21D;52004;45.136;39.010;2022-07-22T12:28:22;20.50;61.60
65396;HTU21D;52004;45.136;39.010;2022-07-22T12:30:49;20.51;61.59
65396;HTU21D;52004;45.136;39.010;2022-07-22T12:33:16;20.59;61.50
65396;HTU21D;52004;45.136;39.010;2022-07-22T12:35:43;20.69;61.49
65396;HTU21D;52004;45.136;39.010;2022-07-22T12:38:09;20.77;61.44
65396;HTU21D;52004;45.136;39.010;2022-07-22T12:40:37;20.91;61.35
65396;HTU21D;52004;45.136;39.010;2022-07-22T12:43:07;21.02;61.23
65396;HTU21D;52004;45.136;39.010;2022-07-22T12:45:34;21.09;61.25
65396;HTU21D;52004;45.136;39.010;2022-07-22T12:50:29;21.25;61.40
65396;HTU21D;52004;45.136;39.010;2022-07-22T12:55:22;21.40;61.37
65396;HTU21D;52004;45.136;39.010;2022-07-22T12:57:48;21.48;61.32
65396;HTU21D;52004;45.136;39.010;2022-07-22T13:00:22;21.53;61.23
65396;HTU21D;52004;45.136;39.010;2022-07-22T13:02:49;21.60;61.21
65396;HTU21D;52004;45.136;39.010;2022-07-22T13:05:15;21.65;61.24
65396;HTU21D;52004;45.136;39.010;2022-07-22T13:07:42;21.69;61.24
65396;HTU21D;52004;45.136;39.010;2022-07-22T13:10:08;21.73;61.33
65396;HTU21D;52004;45.136;39.010;2022-07-22T13:12:34;21.73;61.49
65396;HTU21D;52004;45.136;39.010;2022-07-22T13:15:00;21.70;61.44
65396;HTU21D;52004;45.136;39.010;2022-07-22T13:17:26;21.67;61.50
65396;HTU21D;52004;45.136;39.010;2022-07-22T13:19:53;21.60;61.57
65396;HTU21D;52004;45.136;39.010;2022-07-22T13:22:19;21.49;61.79
65396;HTU21D;52004;45.136;39.010;2022-07-22T13:24:45;21.40;61.88
65396;HTU21D;52004;45.136;39.010;2022-07-22T13:27:10;21.29;62.08
65396;HTU21D;52004;45.136;39.010;2022-07-22T13:29:37;21.19;62.25
65396;HTU21D;52004;45.136;39.010;2022-07-22T13:32:03;21.10;62.28
65396;HTU21D;52004;45.136;39.010;2022-07-22T13:34:29;21.03;62.39
65396;HTU21D;52004;45.136;39.010;2022-07-22T13:36:54;21.02;62.63
65396;HTU21D;52004;45.136;39.010;2022-07-22T13:39:21;20.98;62.42
65396;HTU21D;52004;45.136;39.010;2022-07-22T13:41:47;20.95;62.50
65396;HTU21D;52004;45.136;39.010;2022-07-22T13:44:13;20.90;62.63
65396;HTU21D;52004;45.136;39.010;2022-07-22T13:46:39;20.87;62.75
65396;HTU21D;52004;45.136;39.010;2022-07-22T13:49:05;20.83;62.78
65396;HTU21D;52004;45.136;39.010;2022-07-22T13:51:31;20.78;63.12
65396;HTU21D;52004;45.136;39.010;2022-07-22T13:53:57;20.73;63.12
65396;HTU21D;52004;45.136;39.010;2022-07-22T13:56:23;20.71;63.21
65396;HTU21D;52004;45.136;39.010;2022-07-22T13:58:50;20.70;62.96
65396;HTU21D;52004;45.136;39.010;2022-07-22T14:01:16;20.68;63.13
65396;HTU21D;52004;45.136;39.010;2022-07-22T14:03:42;20.60;63.33
65396;HTU21D;52004;45.136;39.010;2022-07-22T14:06:08;20.55;63.57
65396;HTU21D;52004;45.136;39.010;2022-07-22T14:08:34;20.50;63.72
65396;HTU21D;52004;45.136;39.010;2022-07-22T14:11:01;20.41;63.81
65396;HTU21D;52004;45.136;39.010;2022-07-22T14:13:27;20.36;63.79
65396;HTU21D;52004;45.136;39.010;2022-07-22T14:15:53;20.32;63.82
65396;HTU21D;52004;45.136;39.010;2022-07-22T14:18:19;20.32;63.74
65396;HTU21D;52004;45.136;39.010;2022-07-22T14:20:46;20.31;63.78
65396;HTU21D;52004;45.136;39.010;2022-07-22T14:23:12;20.30;63.81
65396;HTU21D;52004;45.136;39.010;2022-07-22T14:25:39;20.29;63.89
65396;HTU21D;52004;45.136;39.010;2022-07-22T14:28:05;20.30;63.84
65396;HTU21D;52004;45.136;39.010;2022-07-22T14:30:32;20.31;64.07
65396;HTU21D;52004;45.136;39.010;2022-07-22T14:32:58;20.34;63.89
65396;HTU21D;52004;45.136;39.010;2022-07-22T14:35:24;20.37;63.71
65396;HTU21D;52004;45.136;39.010;2022-07-22T14:37:50;20.40;63.80
65396;HTU21D;52004;45.136;39.010;2022-07-22T14:40:16;20.41;63.69
65396;HTU21D;52004;45.136;39.010;2022-07-22T14:42:42;20.43;63.72
65396;HTU21D;52004;45.136;39.010;2022-07-22T14:45:08;20.47;63.66
65396;HTU21D;52004;45.136;39.010;2022-07-22T14:47:37;20.48;63.63
65396;HTU21D;52004;45.136;39.010;2022-07-22T14:50:04;20.54;63.66
65396;HTU21D;52004;45.136;39.010;2022-07-22T14:52:31;20.58;63.63
65396;HTU21D;52004;45.136;39.010;2022-07-22T14:54:57;20.61;63.73
65396;HTU21D;52004;45.136;39.010;2022-07-22T14:57:23;20.63;63.68
65396;HTU21D;52004;45.136;39.010;2022-07-22T14:59:49;20.68;63.66
65396;HTU21D;52004;45.136;39.010;2022-07-22T15:02:15;20.72;63.54
65396;HTU21D;52004;45.136;39.010;2022-07-22T15:04:41;20.76;63.50
65396;HTU21D;52004;45.136;39.010;2022-07-22T15:07:07;20.78;63.44
65396;HTU21D;52004;45.136;39.010;2022-07-22T15:09:33;20.81;63.38
65396;HTU21D;52004;45.136;39.010;2022-07-22T15:11:59;20.85;63.47
65396;HTU21D;52004;45.136;39.010;2022-07-22T15:14:25;20.90;63.37
65396;HTU21D;52004;45.136;39.010;2022-07-22T15:16:51;20.94;63.35
65396;HTU21D;52004;45.136;39.010;2022-07-22T15:19:17;21.00;63.29
65396;HTU21D;52004;45.136;39.010;2022-07-22T15:21:43;21.05;63.32
65396;HTU21D;52004;45.136;39.010;2022-07-22T15:24:09;21.08;63.31
65396;HTU21D;52004;45.136;39.010;2022-07-22T15:26:35;21.16;63.27
65396;HTU21D;52004;45.136;39.010;2022-07-22T15:29:01;21.21;63.24
65396;HTU21D;52004;45.136;39.010;2022-07-22T15:31:27;21.27;63.15